sensor_id;sensor_type;location;lat;lon;timestamp;temperature;humidity
36186;DHT22;22228;53.222;7.446;2023-12-04T00:00:18;-0.10;99.90
36186;DHT22;22228;53.222;7.446;2023-12-04T00:02:38;-0.10;99.90
36186;DHT22;22228;53.222;7.446;2023-12-04T00:05:00;-0.10;99.90
36186;DHT22;22228;53.222;7.446;2023-12-04T00:07:20;-0.10;99.90
36186;DHT22;22228;53.222;7.446;2023-12-04T00:09:41;-0.10;99.90
36186;DHT22;22228;53.222;7.446;2023-12-04T00:12:02;-0.10;99.90
36186;DHT22;22228;53.222;7.446;2023-12-04T00:14:22;-0.10;99.90
36186;DHT22;22228;53.222;7.446;2023-12-04T00:16:43;-0.10;99.90
36186;DHT22;22228;53.222;7.446;2023-12-04T00:19:03;-0.10;99.90
36186;DHT22;22228;53.222;7.446;2023-12-04T00:21:25;-0.10;99.90
36186;DHT22;22228;53.222;7.446;2023-12-04T00:23:45;-0.10;99.90
36186;DHT22;22228;53.222;7.446;2023-12-04T00:26:06;-0.10;99.90
36186;DHT22;22228;53.222;7.446;2023-12-04T00:28:27;-0.10;99.90
36186;DHT22;22228;53.222;7.446;2023-12-04T00:30:48;-0.10;99.90
36186;DHT22;22228;53.222;7.446;2023-12-04T00:33:08;-0.10;99.90
36186;DHT22;22228;53.222;7.446;2023-12-04T00:35:28;-0.10;99.90
36186;DHT22;22228;53.222;7.446;2023-12-04T00:37:50;-0.10;99.90
36186;DHT22;22228;53.222;7.446;2023-12-04T00:40:11;-0.10;99.90
36186;DHT22;22228;53.222;7.446;2023-12-04T00:42:31;-0.10;99.90
36186;DHT22;22228;53.222;7.446;2023-12-04T00:44:51;-0.20;99.90
36186;DHT22;22228;53.222;7.446;2023-12-04T00:47:12;-0.20;99.90
36186;DHT22;22228;53.222;7.446;2023-12-04T00:49:32;-0.10;99.90
36186;DHT22;22228;53.222;7.446;2023-12-04T00:51:53;-0.20;99.90
36186;DHT22;22228;53.222;7.446;2023-12-04T00:54:15;-0.20;99.90
36186;DHT22;22228;53.222;7.446;2023-12-04T00:56:37;-0.20;99.90
36186;DHT22;22228;53.222;7.446;2023-12-04T00:58:58;-0.20;99.90
36186;DHT22;22228;53.222;7.446;2023-12-04T01:01:18;-0.10;99.90
36186;DHT22;22228;53.222;7.446;2023-12-04T01:03:38;-0.10;99.90
36186;DHT22;22228;53.222;7.446;2023-12-04T01:05:59;-0.20;99.90
36186;DHT22;22228;53.222;7.446;2023-12-04T01:08:19;-0.20;99.90
36186;DHT22;22228;53.222;7.446;2023-12-04T01:10:41;-0.20;99.90
36186;DHT22;22228;53.222;7.446;2023-12-04T01:13:01;-0.20;99.90
36186;DHT22;22228;53.222;7.446;2023-12-04T04:01:17;-0.10;99.90
36186;DHT22;22228;53.222;7.446;2023-12-04T04:03:37;-0.10;99.90
36186;DHT22;22228;53.222;7.446;2023-12-04T04:05:58;-0.10;99.90
36186;DHT22;22228;53.222;7.446;2023-12-04T04:08:18;-0.10;99.90
36186;DHT22;22228;53.222;7.446;2023-12-04T04:10:39;-0.10;99.90
36186;DHT22;22228;53.222;7.446;2023-12-04T04:12:59;-0.10;99.90
36186;DHT22;22228;53.222;7.446;2023-12-04T04:15:20;-0.10;99.90
36186;DHT22;22228;53.222;7.446;2023-12-04T04:17:42;-0.10;99.90
36186;DHT22;22228;53.222;7.446;2023-12-04T04:20:03;-0.10;99.90
36186;DHT22;22228;53.222;7.446;2023-12-04T04:22:24;-0.10;99.90
36186;DHT22;22228;53.222;7.446;2023-12-04T04:24:44;-0.10;99.90
36186;DHT22;22228;53.222;7.446;2023-12-04T04:27:05;-0.10;99.90
36186;DHT22;22228;53.222;7.446;2023-12-04T04:29:24;-0.10;99.90
36186;DHT22;22228;53.222;7.446;2023-12-04T04:31:44;-0.10;99.90
36186;DHT22;22228;53.222;7.446;2023-12-04T04:34:06;-0.10;99.90
36186;DHT22;22228;53.222;7.446;2023-12-04T04:36:27;-0.10;99.90
36186;DHT22;22228;53.222;7.446;2023-12-04T04:38:47;0.00;99.90
36186;DHT22;22228;53.222;7.446;2023-12-04T04:41:13;0.00;99.90
36186;DHT22;22228;53.222;7.446;2023-12-04T04:43:33;0.00;99.90
36186;DHT22;22228;53.222;7.446;2023-12-04T04:45:55;0.00;99.90
36186;DHT22;22228;53.222;7.446;2023-12-04T04:48:15;0.00;99.90
36186;DHT22;22228;53.222;7.446;2023-12-04T04:50:37;0.00;99.90
36186;DHT22;22228;53.222;7.446;2023-12-04T04:52:58;0.00;99.90
36186;DHT22;22228;53.222;7.446;2023-12-04T04:55:18;0.00;99.90
36186;DHT22;22228;53.222;7.446;2023-12-04T04:57:39;0.00;99.90
36186;DHT22;22228;53.222;7.446;2023-12-04T04:59:59;0.00;99.90
36186;DHT22;22228;53.222;7.446;2023-12-04T05:02:20;0.00;99.90
36186;DHT22;22228;53.222;7.446;2023-12-04T05:04:40;0.00;99.90
36186;DHT22;22228;53.222;7.446;2023-12-04T05:07:02;0.10;99.90
36186;DHT22;22228;53.222;7.446;2023-12-04T05:09:22;0.10;99.90
36186;DHT22;22228;53.222;7.446;2023-12-04T05:11:43;0.10;99.90
36186;DHT22;22228;53.222;7.446;2023-12-04T05:14:03;0.10;99.90
36186;DHT22;22228;53.222;7.446;2023-12-04T05:16:24;0.10;99.90
36186;DHT22;22228;53.222;7.446;2023-12-04T05:18:44;0.10;99.90
36186;DHT22;22228;53.222;7.446;2023-12-04T05:21:08;0.10;99.90
36186;DHT22;22228;53.222;7.446;2023-12-04T05:23:30;0.10;99.90
36186;DHT22;22228;53.222;7.446;2023-12-04T05:25:50;0.10;99.90
36186;DHT22;22228;53.222;7.446;2023-12-04T05:28:11;0.10;99.90
36186;DHT22;22228;53.222;7.446;2023-12-04T05:30:31;0.10;99.90
36186;DHT22;22228;53.222;7.446;2023-12-04T05:32:51;0.10;99.90
36186;DHT22;22228;53.222;7.446;2023-12-04T05:35:14;0.10;99.90
36186;DHT22;22228;53.222;7.446;2023-12-04T05:37:35;0.10;99.90
36186;DHT22;22228;53.222;7.446;2023-12-04T05:39:57;0.10;99.90
36186;DHT22;22228;53.222;7.446;2023-12-04T05:42:17;0.10;99.90
36186;DHT22;22228;53.222;7.446;2023-12-04T05:44:37;0.10;99.90
36186;DHT22;22228;53.222;7.446;2023-12-04T05:46:58;0.10;99.90
36186;DHT22;22228;53.222;7.446;2023-12-04T05:49:18;0.10;99.90
36186;DHT22;22228;53.222;7.446;2023-12-04T05:51:39;0.10;99.90
36186;DHT22;22228;53.222;7.446;2023-12-04T05:53:59;0.10;99.90
36186;DHT22;22228;53.222;7.446;2023-12-04T05:56:21;0.10;99.90
36186;DHT22;22228;53.222;7.446;2023-12-04T05:58:42;0.10;99.90
36186;DHT22;22228;53.222;7.446;2023-12-04T06:01:02;0.20;99.90
36186;DHT22;22228;53.222;7.446;2023-12-04T06:03:23;0.20;99.90
36186;DHT22;22228;53.222;7.446;2023-12-04T06:05:43;0.20;99.90
36186;DHT22;22228;53.222;7.446;2023-12-04T06:08:04;0.20;99.90
36186;DHT22;22228;53.222;7.446;2023-12-04T06:10:25;0.10;99.90
36186;DHT22;22228;53.222;7.446;2023-12-04T06:12:46;0.20;99.90
36186;DHT22;22228;53.222;7.446;2023-12-04T06:15:08;0.20;99.90
36186;DHT22;22228;53.222;7.446;2023-12-04T06:17:28;0.20;99.90
36186;DHT22;22228;53.222;7.446;2023-12-04T06:19:49;0.20;99.90
36186;DHT22;22228;53.222;7.446;2023-12-04T06:22:10;0.20;99.90
36186;DHT22;22228;53.222;7.446;2023-12-04T06:24:31;0.20;99.90
36186;DHT22;22228;53.222;7.446;2023-12-04T06:26:52;0.20;99.90
36186;DHT22;22228;53.222;7.446;2023-12-04T06:29:14;0.20;99.90
36186;DHT22;22228;53.222;7.446;2023-12-04T06:31:35;0.20;99.90
36186;DHT22;22228;53.222;7.446;2023-12-04T06:33:56;0.20;99.90
36186;DHT22;22228;53.222;7.446;2023-12-04T06:36:17;0.30;99.90
36186;DHT22;22228;53.222;7.446;2023-12-04T06:38:39;0.20;99.90
36186;DHT22;22228;53.222;7.446;2023-12-04T06:41:01;0.20;99.90
36186;DHT22;22228;53.222;7.446;2023-12-04T06:43:21;0.20;99.90
36186;DHT22;22228;53.222;7.446;2023-12-04T06:45:44;0.20;99.90
36186;DHT22;22228;53.222;7.446;2023-12-04T06:48:05;0.20;99.90
36186;DHT22;22228;53.222;7.446;2023-12-04T06:50:25;0.20;99.90
36186;DHT22;22228;53.222;7.446;2023-12-04T06:52:46;0.30;99.90
36186;DHT22;22228;53.222;7.446;2023-12-04T06:55:07;0.30;99.90
36186;DHT22;22228;53.222;7.446;2023-12-04T06:57:27;0.30;99.90
36186;DHT22;22228;53.222;7.446;2023-12-04T06:59:47;0.30;99.90
36186;DHT22;22228;53.222;7.446;2023-12-04T07:02:09;0.30;99.90
36186;DHT22;22228;53.222;7.446;2023-12-04T07:04:30;0.40;99.90
36186;DHT22;22228;53.222;7.446;2023-12-04T07:06:50;0.30;99.90
36186;DHT22;22228;53.222;7.446;2023-12-04T07:09:10;0.30;99.90
36186;DHT22;22228;53.222;7.446;2023-12-04T07:11:31;0.30;99.90
36186;DHT22;22228;53.222;7.446;2023-12-04T07:13:51;0.30;99.90
36186;DHT22;22228;53.222;7.446;2023-12-04T07:16:12;0.30;99.90
36186;DHT22;22228;53.222;7.446;2023-12-04T07:18:33;0.30;99.90
36186;DHT22;22228;53.222;7.446;2023-12-04T07:20:54;0.40;99.90
36186;DHT22;22228;53.222;7.446;2023-12-04T07:23:14;0.40;99.90
36186;DHT22;22228;53.222;7.446;2023-12-04T07:25:35;0.40;99.90
36186;DHT22;22228;53.222;7.446;2023-12-04T07:27:55;0.40;99.90
36186;DHT22;22228;53.222;7.446;2023-12-04T07:30:17;0.40;99.90
36186;DHT22;22228;53.222;7.446;2023-12-04T07:32:37;0.40;99.90
36186;DHT22;22228;53.222;7.446;2023-12-04T07:34:59;0.40;99.90
36186;DHT22;22228;53.222;7.446;2023-12-04T07:37:19;0.40;99.90
36186;DHT22;22228;53.222;7.446;2023-12-04T07:39:39;0.40;99.90
36186;DHT22;22228;53.222;7.446;2023-12-04T07:42:02;0.40;99.90
36186;DHT22;22228;53.222;7.446;2023-12-04T07:44:22;0.40;99.90
36186;DHT22;22228;53.222;7.446;2023-12-04T07:46:43;0.40;99.90
36186;DHT22;22228;53.222;7.446;2023-12-04T07:49:02;0.40;99.90
36186;DHT22;22228;53.222;7.446;2023-12-04T07:51:24;0.40;99.90
36186;DHT22;22228;53.222;7.446;2023-12-04T07:53:44;0.40;99.90
36186;DHT22;22228;53.222;7.446;2023-12-04T07:56:05;0.40;99.90
36186;DHT22;22228;53.222;7.446;2023-12-04T07:58:26;0.40;99.90
36186;DHT22;22228;53.222;7.446;2023-12-04T08:00:47;0.40;99.90
36186;DHT22;22228;53.222;7.446;2023-12-04T08:03:09;0.40;99.90
36186;DHT22;22228;53.222;7.446;2023-12-04T08:05:29;0.30;99.90
36186;DHT22;22228;53.222;7.446;2023-12-04T08:07:52;0.30;99.90
36186;DHT22;22228;53.222;7.446;2023-12-04T08:10:12;0.30;99.90
36186;DHT22;22228;53.222;7.446;2023-12-04T08:12:33;0.30;99.90
36186;DHT22;22228;53.222;7.446;2023-12-04T08:14:53;0.30;99.90
36186;DHT22;22228;53.222;7.446;2023-12-04T08:17:14;0.30;99.90
36186;DHT22;22228;53.222;7.446;2023-12-04T08:19:35;0.30;99.90
36186;DHT22;22228;53.222;7.446;2023-12-04T08:21:57;0.30;99.90
36186;DHT22;22228;53.222;7.446;2023-12-04T08:24:19;0.30;99.90
36186;DHT22;22228;53.222;7.446;2023-12-04T08:26:40;0.30;99.90
36186;DHT22;22228;53.222;7.446;2023-12-04T08:29:01;0.30;99.90
36186;DHT22;22228;53.222;7.446;2023-12-04T08:31:21;0.30;99.90
36186;DHT22;22228;53.222;7.446;2023-12-04T08:33:42;0.30;99.90
36186;DHT22;22228;53.222;7.446;2023-12-04T08:36:03;0.40;99.90
36186;DHT22;22228;53.222;7.446;2023-12-04T08:38:23;0.40;99.90
36186;DHT22;22228;53.222;7.446;2023-12-04T08:40:45;0.40;99.90
36186;DHT22;22228;53.222;7.446;2023-12-04T08:43:05;0.40;99.90
36186;DHT22;22228;53.222;7.446;2023-12-04T08:45:26;0.40;99.90
36186;DHT22;22228;53.222;7.446;2023-12-04T08:47:46;0.50;99.90
36186;DHT22;22228;53.222;7.446;2023-12-04T08:50:08;0.40;99.90
36186;DHT22;22228;53.222;7.446;2023-12-04T08:52:28;0.50;99.90
36186;DHT22;22228;53.222;7.446;2023-12-04T08:54:50;0.50;99.90
36186;DHT22;22228;53.222;7.446;2023-12-04T08:57:11;0.50;99.90
36186;DHT22;22228;53.222;7.446;2023-12-04T08:59:32;0.50;99.90
36186;DHT22;22228;53.222;7.446;2023-12-04T09:01:53;0.50;99.90
36186;DHT22;22228;53.222;7.446;2023-12-04T09:04:13;0.50;99.90
36186;DHT22;22228;53.222;7.446;2023-12-04T09:06:34;0.60;99.90
36186;DHT22;22228;53.222;7.446;2023-12-04T09:08:54;0.60;99.90
36186;DHT22;22228;53.222;7.446;2023-12-04T09:11:15;0.60;99.90
36186;DHT22;22228;53.222;7.446;2023-12-04T09:13:37;0.60;99.90
36186;DHT22;22228;53.222;7.446;2023-12-04T09:15:57;0.60;99.90
36186;DHT22;22228;53.222;7.446;2023-12-04T09:18:18;0.60;99.90
36186;DHT22;22228;53.222;7.446;2023-12-04T09:20:38;0.60;99.90
36186;DHT22;22228;53.222;7.446;2023-12-04T09:22:59;0.60;99.90
36186;DHT22;22228;53.222;7.446;2023-12-04T09:25:19;0.70;99.90
36186;DHT22;22228;53.222;7.446;2023-12-04T09:27:40;0.70;99.90
36186;DHT22;22228;53.222;7.446;2023-12-04T09:30:02;0.70;99.90
36186;DHT22;22228;53.222;7.446;2023-12-04T09:32:23;0.70;99.90
36186;DHT22;22228;53.222;7.446;2023-12-04T09:34:44;0.80;99.90
36186;DHT22;22228;53.222;7.446;2023-12-04T09:37:04;0.80;99.90
36186;DHT22;22228;53.222;7.446;2023-12-04T09:39:25;0.80;99.90
36186;DHT22;22228;53.222;7.446;2023-12-04T09:41:45;0.80;99.90
36186;DHT22;22228;53.222;7.446;2023-12-04T09:44:07;0.90;99.90
36186;DHT22;22228;53.222;7.446;2023-12-04T09:46:29;0.90;99.90
36186;DHT22;22228;53.222;7.446;2023-12-04T09:48:51;0.90;99.90
36186;DHT22;22228;53.222;7.446;2023-12-04T09:51:13;0.90;99.90
36186;DHT22;22228;53.222;7.446;2023-12-04T09:53:35;1.00;99.90
36186;DHT22;22228;53.222;7.446;2023-12-04T09:55:57;1.00;99.90
36186;DHT22;22228;53.222;7.446;2023-12-04T09:58:20;1.00;99.90
36186;DHT22;22228;53.222;7.446;2023-12-04T10:00:41;1.00;99.90
36186;DHT22;22228;53.222;7.446;2023-12-04T10:03:04;1.00;99.90
36186;DHT22;22228;53.222;7.446;2023-12-04T10:05:24;1.10;99.90
36186;DHT22;22228;53.222;7.446;2023-12-04T10:07:45;1.10;99.90
36186;DHT22;22228;53.222;7.446;2023-12-04T10:10:06;1.10;99.90
36186;DHT22;22228;53.222;7.446;2023-12-04T10:12:27;1.20;99.90
36186;DHT22;22228;53.222;7.446;2023-12-04T10:15:03;1.20;99.90
36186;DHT22;22228;53.222;7.446;2023-12-04T10:17:23;1.20;99.90
36186;DHT22;22228;53.222;7.446;2023-12-04T10:19:45;1.20;99.90
36186;DHT22;22228;53.222;7.446;2023-12-04T10:22:08;1.20;99.90
36186;DHT22;22228;53.222;7.446;2023-12-04T10:24:31;1.20;99.90
36186;DHT22;22228;53.222;7.446;2023-12-04T10:26:53;1.20;99.90
36186;DHT22;22228;53.222;7.446;2023-12-04T10:29:14;1.30;99.90
36186;DHT22;22228;53.222;7.446;2023-12-04T10:31:35;1.30;99.90
36186;DHT22;22228;53.222;7.446;2023-12-04T10:33:55;1.30;99.90
36186;DHT22;22228;53.222;7.446;2023-12-04T10:36:18;1.30;99.90
36186;DHT22;22228;53.222;7.446;2023-12-04T10:38:39;1.30;99.90
36186;DHT22;22228;53.222;7.446;2023-12-04T10:41:11;1.40;99.90
36186;DHT22;22228;53.222;7.446;2023-12-04T10:43:32;1.40;99.90
36186;DHT22;22228;53.222;7.446;2023-12-04T10:45:52;1.40;99.90
36186;DHT22;22228;53.222;7.446;2023-12-04T10:48:15;1.40;99.90
36186;DHT22;22228;53.222;7.446;2023-12-04T10:50:36;1.50;99.90
36186;DHT22;22228;53.222;7.446;2023-12-04T10:52:58;1.50;99.90
36186;DHT22;22228;53.222;7.446;2023-12-04T10:55:20;1.50;99.90
36186;DHT22;22228;53.222;7.446;2023-12-04T10:57:40;1.50;99.90
36186;DHT22;22228;53.222;7.446;2023-12-04T11:00:05;1.50;99.90
36186;DHT22;22228;53.222;7.446;2023-12-04T11:02:29;1.50;99.90
36186;DHT22;22228;53.222;7.446;2023-12-04T11:04:58;1.60;99.90
36186;DHT22;22228;53.222;7.446;2023-12-04T11:07:21;1.60;99.90
36186;DHT22;22228;53.222;7.446;2023-12-04T11:09:44;1.60;99.90
36186;DHT22;22228;53.222;7.446;2023-12-04T11:12:09;1.60;99.90
36186;DHT22;22228;53.222;7.446;2023-12-04T11:14:37;1.50;99.90
36186;DHT22;22228;53.222;7.446;2023-12-04T11:17:04;1.50;99.90
36186;DHT22;22228;53.222;7.446;2023-12-04T11:19:29;1.50;99.90
36186;DHT22;22228;53.222;7.446;2023-12-04T11:21:50;1.50;99.90
36186;DHT22;22228;53.222;7.446;2023-12-04T11:24:11;1.50;99.90
36186;DHT22;22228;53.222;7.446;2023-12-04T11:26:32;1.50;99.90
36186;DHT22;22228;53.222;7.446;2023-12-04T11:28:54;1.50;99.90
36186;DHT22;22228;53.222;7.446;2023-12-04T11:31:15;1.60;99.90
36186;DHT22;22228;53.222;7.446;2023-12-04T11:33:37;1.60;99.90
36186;DHT22;22228;53.222;7.446;2023-12-04T11:36:06;1.50;99.90
36186;DHT22;22228;53.222;7.446;2023-12-04T11:38:27;1.60;99.90
36186;DHT22;22228;53.222;7.446;2023-12-04T11:40:47;1.60;99.90
36186;DHT22;22228;53.222;7.446;2023-12-04T11:43:25;1.60;99.90
36186;DHT22;22228;53.222;7.446;2023-12-04T11:45:47;1.60;99.90
36186;DHT22;22228;53.222;7.446;2023-12-04T11:48:08;1.60;99.90
36186;DHT22;22228;53.222;7.446;2023-12-04T11:50:29;1.60;99.90
36186;DHT22;22228;53.222;7.446;2023-12-04T11:52:49;1.60;99.90
36186;DHT22;22228;53.222;7.446;2023-12-04T11:55:10;1.60;99.90
36186;DHT22;22228;53.222;7.446;2023-12-04T11:57:32;1.60;99.90
36186;DHT22;22228;53.222;7.446;2023-12-04T12:00:08;1.60;99.90
36186;DHT22;22228;53.222;7.446;2023-12-04T12:02:31;1.60;99.90
36186;DHT22;22228;53.222;7.446;2023-12-04T12:04:54;1.60;99.90
36186;DHT22;22228;53.222;7.446;2023-12-04T12:07:15;1.60;99.90
36186;DHT22;22228;53.222;7.446;2023-12-04T12:09:35;1.60;99.90
36186;DHT22;22228;53.222;7.446;2023-12-04T12:11:56;1.60;99.90
36186;DHT22;22228;53.222;7.446;2023-12-04T12:14:20;1.60;99.90
36186;DHT22;22228;53.222;7.446;2023-12-04T12:16:42;1.60;99.90
36186;DHT22;22228;53.222;7.446;2023-12-04T12:19:02;1.70;99.90
36186;DHT22;22228;53.222;7.446;2023-12-04T12:21:23;1.70;99.90
36186;DHT22;22228;53.222;7.446;2023-12-04T12:23:44;1.70;99.90
36186;DHT22;22228;53.222;7.446;2023-12-04T12:26:05;1.70;99.90
36186;DHT22;22228;53.222;7.446;2023-12-04T12:28:26;1.70;99.90
36186;DHT22;22228;53.222;7.446;2023-12-04T12:30:47;1.70;99.90
36186;DHT22;22228;53.222;7.446;2023-12-04T12:33:09;1.70;99.90
36186;DHT22;22228;53.222;7.446;2023-12-04T12:35:32;1.70;99.90
36186;DHT22;22228;53.222;7.446;2023-12-04T12:37:53;1.70;99.90
36186;DHT22;22228;53.222;7.446;2023-12-04T12:40:14;1.80;99.90
36186;DHT22;22228;53.222;7.446;2023-12-04T12:42:34;1.80;99.90
36186;DHT22;22228;53.222;7.446;2023-12-04T12:44:55;1.70;99.90
36186;DHT22;22228;53.222;7.446;2023-12-04T12:47:19;1.70;99.90
36186;DHT22;22228;53.222;7.446;2023-12-04T12:49:41;1.70;99.90
36186;DHT22;22228;53.222;7.446;2023-12-04T12:52:27;1.70;99.90
36186;DHT22;22228;53.222;7.446;2023-12-04T12:54:47;1.70;99.90
36186;DHT22;22228;53.222;7.446;2023-12-04T12:57:08;1.70;99.90
36186;DHT22;22228;53.222;7.446;2023-12-04T12:59:30;1.70;99.90
36186;DHT22;22228;53.222;7.446;2023-12-04T13:01:50;1.70;99.90
36186;DHT22;22228;53.222;7.446;2023-12-04T13:04:14;1.80;99.90
36186;DHT22;22228;53.222;7.446;2023-12-04T13:06:36;1.80;99.90
36186;DHT22;22228;53.222;7.446;2023-12-04T13:08:57;1.70;99.90
36186;DHT22;22228;53.222;7.446;2023-12-04T13:11:18;1.70;99.90
36186;DHT22;22228;53.222;7.446;2023-12-04T13:13:38;1.80;99.90
36186;DHT22;22228;53.222;7.446;2023-12-04T13:15:59;1.80;99.90
36186;DHT22;22228;53.222;7.446;2023-12-04T13:18:19;1.80;99.90
36186;DHT22;22228;53.222;7.446;2023-12-04T13:20:40;1.90;99.90
36186;DHT22;22228;53.222;7.446;2023-12-04T13:23:02;1.90;99.90
36186;DHT22;22228;53.222;7.446;2023-12-04T13:25:22;1.90;99.90
36186;DHT22;22228;53.222;7.446;2023-12-04T13:27:43;2.00;99.90
36186;DHT22;22228;53.222;7.446;2023-12-04T13:30:04;2.00;99.90
36186;DHT22;22228;53.222;7.446;2023-12-04T13:32:25;2.00;99.90
36186;DHT22;22228;53.222;7.446;2023-12-04T13:34:46;1.90;99.90
36186;DHT22;22228;53.222;7.446;2023-12-04T13:37:06;2.00;99.90
36186;DHT22;22228;53.222;7.446;2023-12-04T13:39:28;2.00;99.90
36186;DHT22;22228;53.222;7.446;2023-12-04T13:42:06;2.00;99.90
36186;DHT22;22228;53.222;7.446;2023-12-04T13:44:44;1.90;99.90
36186;DHT22;22228;53.222;7.446;2023-12-04T13:47:04;1.90;99.90
36186;DHT22;22228;53.222;7.446;2023-12-04T13:49:25;1.90;99.90
36186;DHT22;22228;53.222;7.446;2023-12-04T13:51:45;1.90;99.90
36186;DHT22;22228;53.222;7.446;2023-12-04T13:54:08;1.90;99.90
36186;DHT22;22228;53.222;7.446;2023-12-04T13:56:40;1.90;99.90
36186;DHT22;22228;53.222;7.446;2023-12-04T13:59:11;1.80;99.90
36186;DHT22;22228;53.222;7.446;2023-12-04T14:01:37;1.80;99.90
36186;DHT22;22228;53.222;7.446;2023-12-04T14:04:01;1.70;99.90
36186;DHT22;22228;53.222;7.446;2023-12-04T14:06:21;1.70;99.90
36186;DHT22;22228;53.222;7.446;2023-12-04T14:08:41;1.70;99.90
36186;DHT22;22228;53.222;7.446;2023-12-04T14:11:02;1.60;99.90
36186;DHT22;22228;53.222;7.446;2023-12-04T14:13:24;1.60;99.90
36186;DHT22;22228;53.222;7.446;2023-12-04T14:15:44;1.60;99.90
36186;DHT22;22228;53.222;7.446;2023-12-04T14:18:05;1.50;99.90
36186;DHT22;22228;53.222;7.446;2023-12-04T14:20:25;1.50;99.90
36186;DHT22;22228;53.222;7.446;2023-12-04T14:22:46;1.50;99.90
36186;DHT22;22228;53.222;7.446;2023-12-04T14:25:06;1.50;99.90
36186;DHT22;22228;53.222;7.446;2023-12-04T14:27:27;1.50;99.90
36186;DHT22;22228;53.222;7.446;2023-12-04T14:29:49;1.50;99.90
36186;DHT22;22228;53.222;7.446;2023-12-04T14:32:09;1.50;99.90
36186;DHT22;22228;53.222;7.446;2023-12-04T14:34:29;1.50;99.90
36186;DHT22;22228;53.222;7.446;2023-12-04T14:36:51;1.50;99.90
36186;DHT22;22228;53.222;7.446;2023-12-04T14:39:12;1.40;99.90
36186;DHT22;22228;53.222;7.446;2023-12-04T14:41:33;1.40;99.90
36186;DHT22;22228;53.222;7.446;2023-12-04T14:43:53;1.40;99.90
36186;DHT22;22228;53.222;7.446;2023-12-04T14:46:15;1.30;99.90
36186;DHT22;22228;53.222;7.446;2023-12-04T14:48:37;1.30;99.90
36186;DHT22;22228;53.222;7.446;2023-12-04T14:50:58;1.30;99.90
36186;DHT22;22228;53.222;7.446;2023-12-04T14:53:18;1.20;99.90
36186;DHT22;22228;53.222;7.446;2023-12-04T14:55:48;1.20;99.90
36186;DHT22;22228;53.222;7.446;2023-12-04T14:58:26;1.20;99.90
36186;DHT22;22228;53.222;7.446;2023-12-04T15:01:22;1.20;99.90
36186;DHT22;22228;53.222;7.446;2023-12-04T15:04:00;1.20;99.90
36186;DHT22;22228;53.222;7.446;2023-12-04T15:06:43;1.20;99.90
36186;DHT22;22228;53.222;7.446;2023-12-04T15:09:27;1.20;99.90
36186;DHT22;22228;53.222;7.446;2023-12-04T15:12:20;1.20;99.90
36186;DHT22;22228;53.222;7.446;2023-12-04T15:14:47;1.10;99.90
36186;DHT22;22228;53.222;7.446;2023-12-04T15:17:13;1.20;99.90
36186;DHT22;22228;53.222;7.446;2023-12-04T15:19:47;1.20;99.90
36186;DHT22;22228;53.222;7.446;2023-12-04T15:22:34;1.20;99.90
36186;DHT22;22228;53.222;7.446;2023-12-04T15:24:55;1.20;99.90
36186;DHT22;22228;53.222;7.446;2023-12-04T15:27:15;1.20;99.90
36186;DHT22;22228;53.222;7.446;2023-12-04T15:29:36;1.20;99.90
36186;DHT22;22228;53.222;7.446;2023-12-04T15:31:55;1.20;99.90
36186;DHT22;22228;53.222;7.446;2023-12-04T15:34:17;1.20;99.90
36186;DHT22;22228;53.222;7.446;2023-12-04T15:36:37;1.20;99.90
36186;DHT22;22228;53.222;7.446;2023-12-04T15:38:57;1.20;99.90
36186;DHT22;22228;53.222;7.446;2023-12-04T15:41:17;1.20;99.90
36186;DHT22;22228;53.222;7.446;2023-12-04T15:43:39;1.20;99.90
36186;DHT22;22228;53.222;7.446;2023-12-04T15:45:58;1.20;99.90
36186;DHT22;22228;53.222;7.446;2023-12-04T15:48:19;1.20;99.90
36186;DHT22;22228;53.222;7.446;2023-12-04T15:50:39;1.20;99.90
36186;DHT22;22228;53.222;7.446;2023-12-04T15:53:00;1.20;99.90
36186;DHT22;22228;53.222;7.446;2023-12-04T16:03:21;1.20;99.90
36186;DHT22;22228;53.222;7.446;2023-12-04T16:05:43;1.20;99.90
36186;DHT22;22228;53.222;7.446;2023-12-04T16:08:04;1.20;99.90
36186;DHT22;22228;53.222;7.446;2023-12-04T16:10:25;1.20;99.90
36186;DHT22;22228;53.222;7.446;2023-12-04T16:12:45;1.20;99.90
36186;DHT22;22228;53.222;7.446;2023-12-04T16:15:08;1.30;99.90
36186;DHT22;22228;53.222;7.446;2023-12-04T16:17:28;1.30;99.90
36186;DHT22;22228;53.222;7.446;2023-12-04T16:19:49;1.30;99.90
36186;DHT22;22228;53.222;7.446;2023-12-04T16:22:12;1.20;99.90
36186;DHT22;22228;53.222;7.446;2023-12-04T16:24:32;1.20;99.90
36186;DHT22;22228;53.222;7.446;2023-12-04T16:26:53;1.20;99.90
36186;DHT22;22228;53.222;7.446;2023-12-04T16:29:15;1.20;99.90
36186;DHT22;22228;53.222;7.446;2023-12-04T16:31:36;1.20;99.90
36186;DHT22;22228;53.222;7.446;2023-12-04T16:33:59;1.20;99.90
36186;DHT22;22228;53.222;7.446;2023-12-04T16:36:19;1.20;99.90
36186;DHT22;22228;53.222;7.446;2023-12-04T16:38:41;1.10;99.90
36186;DHT22;22228;53.222;7.446;2023-12-04T16:41:02;1.10;99.90
36186;DHT22;22228;53.222;7.446;2023-12-04T16:43:23;1.10;99.90
36186;DHT22;22228;53.222;7.446;2023-12-04T16:45:43;1.00;99.90
36186;DHT22;22228;53.222;7.446;2023-12-04T16:48:04;1.00;99.90
36186;DHT22;22228;53.222;7.446;2023-12-04T16:50:24;1.00;99.90
36186;DHT22;22228;53.222;7.446;2023-12-04T16:52:45;1.00;99.90
36186;DHT22;22228;53.222;7.446;2023-12-04T16:55:08;0.90;99.90
36186;DHT22;22228;53.222;7.446;2023-12-04T16:57:28;0.90;99.90
36186;DHT22;22228;53.222;7.446;2023-12-04T16:59:48;0.90;99.90
36186;DHT22;22228;53.222;7.446;2023-12-04T17:02:09;0.90;99.90
36186;DHT22;22228;53.222;7.446;2023-12-04T17:04:30;0.90;99.90
36186;DHT22;22228;53.222;7.446;2023-12-04T17:06:50;0.90;99.90
36186;DHT22;22228;53.222;7.446;2023-12-04T17:09:11;1.00;99.90
36186;DHT22;22228;53.222;7.446;2023-12-04T17:11:35;0.90;99.90
36186;DHT22;22228;53.222;7.446;2023-12-04T17:13:55;0.90;99.90
36186;DHT22;22228;53.222;7.446;2023-12-04T17:16:16;0.80;99.90
36186;DHT22;22228;53.222;7.446;2023-12-04T17:18:38;0.80;99.90
36186;DHT22;22228;53.222;7.446;2023-12-04T17:20:58;0.80;99.90
36186;DHT22;22228;53.222;7.446;2023-12-04T17:23:19;0.80;99.90
36186;DHT22;22228;53.222;7.446;2023-12-04T17:25:40;0.70;99.90
36186;DHT22;22228;53.222;7.446;2023-12-04T17:28:02;0.70;99.90
36186;DHT22;22228;53.222;7.446;2023-12-04T17:30:23;0.70;99.90
36186;DHT22;22228;53.222;7.446;2023-12-04T17:32:44;0.60;99.90
36186;DHT22;22228;53.222;7.446;2023-12-04T17:35:05;0.60;99.90
36186;DHT22;22228;53.222;7.446;2023-12-04T17:37:26;0.60;99.90
36186;DHT22;22228;53.222;7.446;2023-12-04T17:39:46;0.60;99.90
36186;DHT22;22228;53.222;7.446;2023-12-04T17:42:07;0.60;99.90
36186;DHT22;22228;53.222;7.446;2023-12-04T17:44:29;0.50;99.90
36186;DHT22;22228;53.222;7.446;2023-12-04T17:46:49;0.50;99.90
36186;DHT22;22228;53.222;7.446;2023-12-04T17:49:10;0.60;99.90
36186;DHT22;22228;53.222;7.446;2023-12-04T17:51:32;0.50;99.90
36186;DHT22;22228;53.222;7.446;2023-12-04T17:53:53;0.60;99.90
36186;DHT22;22228;53.222;7.446;2023-12-04T17:56:14;0.60;99.90
36186;DHT22;22228;53.222;7.446;2023-12-04T17:58:34;0.60;99.90
36186;DHT22;22228;53.222;7.446;2023-12-04T18:00:56;0.60;99.90
36186;DHT22;22228;53.222;7.446;2023-12-04T18:03:17;0.60;99.90